createdAt,value
2023-03-23T15:57:59.591Z,11.27
2023-03-23T16:00:30.026Z,9.65
2023-03-23T16:03:01.525Z,8.48
2023-03-23T16:05:28.811Z,8.68
2023-03-23T16:07:58.083Z,8.85
2023-03-23T16:10:26.560Z,9.77
2023-03-23T16:12:53.715Z,11.35
2023-03-23T16:15:21.442Z,8.68
2023-03-23T16:17:50.693Z,4.97
2023-03-23T16:20:20.591Z,13.30
2023-03-23T16:22:50.641Z,11.98
2023-03-23T16:25:18.975Z,9.73
2023-03-23T16:27:51.778Z,9.13
2023-03-23T16:30:24.179Z,12.35
2023-03-23T16:32:51.663Z,13.85
2023-03-23T16:35:19.450Z,15.35
2023-03-23T16:37:52.171Z,11.10
2023-03-23T16:40:37.449Z,5.47
2023-03-23T16:43:09.238Z,8.80
2023-03-23T16:45:42.418Z,9.15
2023-03-23T16:48:12.450Z,10.50
2023-03-23T16:50:39.970Z,16.73
2023-03-23T16:53:08.553Z,15.73
2023-03-23T16:55:37.289Z,14.17
2023-03-23T16:58:16.192Z,12.02
2023-03-23T17:00:50.334Z,7.25
2023-03-23T17:03:21.951Z,8.60
2023-03-23T17:05:53.057Z,7.47
2023-03-23T17:08:21.446Z,8.50
2023-03-23T17:10:48.843Z,7.35
2023-03-23T17:13:16.302Z,15.63
2023-03-23T17:15:46.660Z,14.13
2023-03-23T17:18:15.110Z,14.85
2023-03-23T17:20:43.230Z,15.90
2023-03-23T17:23:10.690Z,16.00
2023-03-23T17:25:37.718Z,14.80
2023-03-23T17:28:07.250Z,13.23
2023-03-23T17:33:01.914Z,13.50
2023-03-23T17:35:28.928Z,14.48
2023-03-23T17:37:55.939Z,12.50
2023-03-23T17:40:23.236Z,15.57
2023-03-23T17:42:50.761Z,11.85
2023-03-23T17:45:20.454Z,20.92
2023-03-23T17:47:47.636Z,18.20
2023-03-23T17:50:16.766Z,25.02
2023-03-23T17:52:44.363Z,15.80
2023-03-23T17:55:13.532Z,43.92
2023-03-23T17:57:40.629Z,32.33
2023-03-23T18:00:08.983Z,66.90
2023-03-23T18:02:37.520Z,50.42
2023-03-23T18:05:06.590Z,60.23
2023-03-23T18:07:33.620Z,73.60
2023-03-23T18:10:01.237Z,53.90
2023-03-23T18:12:28.393Z,56.53
2023-03-23T18:14:59.195Z,59.30
2023-03-23T18:17:27.099Z,55.80
2023-03-23T18:19:55.021Z,52.50
2023-03-23T18:22:22.474Z,56.95
2023-03-23T18:24:50.180Z,67.22
2023-03-23T18:27:17.678Z,58.05
2023-03-23T18:29:44.831Z,74.65
2023-03-23T18:32:11.871Z,73.72
2023-03-23T18:34:43.884Z,73.18
2023-03-23T18:37:11.132Z,77.12
2023-03-23T18:39:40.728Z,66.85
2023-03-23T18:42:08.233Z,77.60
2023-03-23T18:44:35.486Z,59.85
2023-03-23T18:47:03.203Z,58.10
2023-03-23T18:49:30.628Z,68.70
2023-03-23T18:51:57.659Z,46.75
2023-03-23T18:54:24.885Z,48.03
2023-03-23T18:56:52.167Z,48.97
2023-03-23T18:59:21.276Z,43.45
2023-03-23T19:01:49.998Z,42.38
2023-03-23T19:04:17.845Z,38.47
2023-03-23T19:06:44.822Z,36.97
2023-03-23T19:09:11.794Z,33.35
2023-03-23T19:11:38.760Z,30.48
2023-03-23T19:14:07.999Z,22.75
2023-03-23T19:16:36.260Z,22.15
2023-03-23T19:19:05.464Z,17.90
2023-03-23T19:21:33.054Z,13.88
2023-03-23T19:24:01.844Z,15.45
2023-03-23T19:26:37.627Z,10.73
2023-03-23T19:29:24.666Z,13.43
2023-03-23T19:31:53.962Z,14.05
2023-03-23T19:34:22.197Z,14.95
2023-03-23T19:36:55.134Z,12.93
2023-03-23T19:39:30.282Z,11.63
2023-03-23T19:41:57.335Z,12.07
2023-03-23T19:44:25.141Z,12.30
2023-03-23T19:46:52.701Z,15.30
2023-03-23T19:51:47.091Z,16.48
2023-03-23T19:54:14.133Z,18.70
2023-03-23T19:56:41.650Z,19.98
2023-03-23T19:59:10.767Z,15.98
2023-03-23T20:01:38.040Z,20.62
2023-03-23T20:04:05.601Z,26.95
2023-03-23T20:06:34.764Z,32.67
2023-03-23T20:09:02.258Z,39.17
2023-03-23T20:11:32.298Z,25.90
2023-03-23T20:13:59.308Z,33.05
2023-03-23T20:16:26.837Z,33.92
2023-03-23T20:18:54.525Z,45.63
2023-03-23T20:21:23.023Z,41.80
2023-03-23T20:23:52.816Z,39.92
2023-03-23T20:28:48.038Z,48.83
2023-03-23T20:31:23.340Z,52.03
2023-03-23T20:34:00.085Z,46.25
2023-03-23T20:36:35.965Z,54.50
2023-03-23T20:39:08.433Z,35.88
2023-03-23T20:41:36.424Z,66.60
2023-03-23T20:44:04.200Z,48.70
2023-03-23T20:46:31.882Z,40.22
2023-03-23T20:48:58.965Z,33.42
2023-03-23T20:51:25.874Z,39.60
2023-03-23T20:53:53.500Z,42.92
2023-03-23T20:56:20.536Z,36.85
2023-03-23T20:58:47.901Z,38.95
2023-03-23T21:01:15.593Z,76.07
2023-03-23T21:03:44.182Z,51.33
2023-03-23T21:06:12.234Z,44.72
2023-03-23T21:08:41.033Z,38.42
2023-03-23T21:11:16.634Z,38.00
2023-03-23T21:13:44.942Z,46.67
2023-03-23T21:16:12.237Z,45.33
2023-03-23T21:18:39.718Z,49.10
2023-03-23T21:21:12.367Z,39.80
2023-03-23T21:23:47.389Z,28.38
2023-03-23T21:26:17.839Z,41.13
2023-03-23T21:28:46.962Z,36.95
2023-03-23T21:31:15.276Z,26.55
2023-03-23T21:33:42.308Z,40.45
2023-03-23T21:36:09.965Z,27.02
2023-03-23T21:38:38.430Z,29.85
2023-03-23T21:41:14.606Z,33.13
2023-03-23T21:43:41.993Z,17.70
2023-03-23T21:46:09.944Z,20.85
2023-03-23T21:48:38.931Z,19.95
2023-03-23T21:51:12.761Z,14.80
2023-03-23T21:53:40.019Z,19.52
2023-03-23T21:56:09.888Z,23.75
2023-03-23T21:58:37.758Z,16.17
2023-03-23T22:01:06.134Z,13.57
2023-03-23T22:03:33.299Z,20.60
2023-03-23T22:06:09.843Z,17.27
2023-03-23T22:08:39.842Z,16.08
2023-03-23T22:11:11.044Z,16.83
2023-03-23T22:13:39.288Z,20.88
2023-03-23T22:16:10.378Z,20.48
2023-03-23T22:18:39.524Z,18.70
2023-03-23T22:21:07.309Z,20.20
2023-03-23T22:23:35.029Z,15.73
2023-03-23T22:26:02.405Z,26.27
2023-03-23T22:28:31.078Z,15.88
2023-03-23T22:31:07.808Z,21.00
2023-03-23T22:33:36.207Z,30.98
2023-03-23T22:36:06.505Z,28.90
2023-03-23T22:38:37.978Z,21.98
2023-03-23T22:41:07.742Z,21.77
2023-03-23T22:43:36.253Z,19.20
2023-03-23T22:46:04.270Z,24.85
2023-03-23T22:48:31.823Z,24.17
2023-03-23T22:50:59.235Z,28.98
2023-03-23T22:53:26.640Z,17.90
2023-03-23T22:55:56.556Z,25.37
2023-03-23T22:58:25.516Z,11.85
2023-03-23T23:00:58.696Z,16.98
2023-03-23T23:03:26.956Z,11.88
2023-03-23T23:05:55.670Z,12.57
2023-03-23T23:08:24.145Z,15.68
2023-03-23T23:10:54.560Z,10.82
2023-03-23T23:13:22.015Z,10.88
2023-03-23T23:15:52.118Z,12.98
2023-03-23T23:18:20.728Z,10.45
2023-03-23T23:20:53.056Z,14.30
2023-03-23T23:23:20.655Z,11.38
2023-03-23T23:25:49.728Z,15.70
2023-03-23T23:28:17.147Z,10.82
2023-03-23T23:30:44.468Z,14.85
2023-03-23T23:33:11.733Z,15.48
2023-03-23T23:35:39.902Z,10.75
2023-03-23T23:38:09.786Z,10.23
2023-03-23T23:43:04.592Z,11.65
2023-03-23T23:45:31.827Z,13.30
2023-03-23T23:47:59.648Z,12.35
2023-03-23T23:50:28.279Z,8.90
2023-03-23T23:52:55.227Z,11.18
2023-03-23T23:55:22.358Z,12.55
2023-03-23T23:57:50.126Z,12.50
